createdAt,value
2022-10-19T00:01:36.743Z,5.40
2022-10-19T00:04:07.869Z,6.05
2022-10-19T00:06:37.216Z,5.78
2022-10-19T00:09:06.336Z,5.80
2022-10-19T00:11:34.068Z,6.03
2022-10-19T00:14:01.766Z,6.45
2022-10-19T00:16:29.966Z,7.47
2022-10-19T00:18:57.945Z,7.25
2022-10-19T00:21:25.506Z,5.97
2022-10-19T00:23:52.604Z,5.63
2022-10-19T00:26:19.652Z,6.18
2022-10-19T00:28:46.799Z,6.38
2022-10-19T00:31:15.590Z,6.40
2022-10-19T00:33:44.257Z,7.07
2022-10-19T00:36:17.462Z,6.35
2022-10-19T00:38:44.568Z,6.47
2022-10-19T00:41:11.711Z,6.35
2022-10-19T00:44:17.183Z,5.63
2022-10-19T00:46:45.382Z,6.47
2022-10-19T00:49:19.797Z,7.93
2022-10-19T00:51:51.189Z,8.30
2022-10-19T00:56:47.421Z,9.07
2022-10-19T00:59:16.157Z,7.35
2022-10-19T01:01:44.044Z,8.05
2022-10-19T01:04:11.594Z,7.68
2022-10-19T01:06:39.304Z,7.97
2022-10-19T01:09:06.605Z,8.40
2022-10-19T01:11:36.985Z,9.00
2022-10-19T01:14:27.667Z,8.68
2022-10-19T01:17:11.037Z,8.32
2022-10-19T01:19:58.344Z,8.13
2022-10-19T01:22:40.742Z,9.45
2022-10-19T01:25:27.715Z,7.40
2022-10-19T01:28:33.189Z,7.88
2022-10-19T01:31:03.488Z,8.43
2022-10-19T01:33:43.378Z,9.40
2022-10-19T01:36:25.633Z,8.88
2022-10-19T01:39:03.811Z,9.30
2022-10-19T01:41:34.692Z,9.85
2022-10-19T01:44:03.940Z,8.35
2022-10-19T01:46:38.670Z,8.43
2022-10-19T01:49:09.727Z,8.52
2022-10-19T01:51:39.489Z,9.43
2022-10-19T01:54:09.392Z,9.80
2022-10-19T01:56:37.117Z,8.75
2022-10-19T01:59:05.191Z,9.63
2022-10-19T02:01:34.298Z,9.23
2022-10-19T02:04:02.045Z,9.73
2022-10-19T02:06:29.182Z,9.82
2022-10-19T02:08:56.419Z,9.45
2022-10-19T02:11:23.755Z,9.48
2022-10-19T02:13:53.755Z,9.02
2022-10-19T02:16:30.130Z,9.07
2022-10-19T02:18:58.319Z,8.38
2022-10-19T02:21:26.758Z,8.55
2022-10-19T02:23:54.316Z,9.25
2022-10-19T02:26:22.045Z,8.52
2022-10-19T02:28:49.852Z,8.30
2022-10-19T02:31:17.037Z,9.55
2022-10-19T02:33:44.237Z,8.93
2022-10-19T02:36:11.347Z,8.55
2022-10-19T02:38:38.424Z,9.38
2022-10-19T02:41:27.971Z,8.73
2022-10-19T02:43:58.849Z,9.02
2022-10-19T02:46:33.083Z,8.85
2022-10-19T02:49:02.237Z,9.75
2022-10-19T02:51:29.321Z,9.38
2022-10-19T02:53:57.405Z,9.27
2022-10-19T02:56:27.103Z,12.13
2022-10-19T02:58:54.266Z,9.50
2022-10-19T03:01:21.698Z,10.77
2022-10-19T03:03:48.782Z,8.98
2022-10-19T03:06:15.899Z,12.20
2022-10-19T03:08:42.968Z,12.55
2022-10-19T03:11:10.081Z,10.85
2022-10-19T03:13:37.242Z,10.27
2022-10-19T03:16:11.738Z,9.77
2022-10-19T03:18:38.930Z,9.82
2022-10-19T03:21:07.577Z,10.90
2022-10-19T03:23:35.046Z,9.98
2022-10-19T03:26:02.239Z,10.60
2022-10-19T03:28:29.536Z,10.00
2022-10-19T03:30:56.982Z,9.57
2022-10-19T03:36:16.135Z,10.98
2022-10-19T03:38:43.212Z,10.93
2022-10-19T03:41:10.503Z,11.73
2022-10-19T03:43:37.620Z,9.98
2022-10-19T03:46:04.747Z,11.13
2022-10-19T03:48:31.873Z,9.63
2022-10-19T03:51:00.531Z,11.52
2022-10-19T03:53:27.641Z,11.23
2022-10-19T03:56:01.051Z,13.68
2022-10-19T03:58:28.125Z,35.15
2022-10-19T04:00:55.366Z,12.18
2022-10-19T04:03:22.568Z,11.43
2022-10-19T04:05:49.653Z,12.13
2022-10-19T04:08:17.180Z,27.35
2022-10-19T04:10:44.220Z,13.15
2022-10-19T04:13:11.378Z,13.25
2022-10-19T04:15:38.450Z,12.82
2022-10-19T04:18:05.616Z,11.50
2022-10-19T04:20:33.807Z,12.07
2022-10-19T04:23:00.999Z,12.32
2022-10-19T04:25:28.210Z,12.70
2022-10-19T04:27:55.389Z,12.32
2022-10-19T04:30:22.633Z,13.40
2022-10-19T04:32:49.747Z,14.35
2022-10-19T04:35:16.869Z,13.45
2022-10-19T04:37:44.035Z,12.30
2022-10-19T04:40:14.966Z,13.30
2022-10-19T04:42:42.394Z,14.43
2022-10-19T04:45:09.735Z,13.50
2022-10-19T04:47:37.141Z,13.77
2022-10-19T04:50:04.564Z,14.50
2022-10-19T04:52:31.762Z,14.05
2022-10-19T04:54:58.912Z,15.55
2022-10-19T04:57:26.058Z,14.77
2022-10-19T04:59:53.289Z,12.60
2022-10-19T05:02:20.356Z,14.45
2022-10-19T05:04:48.780Z,14.25
2022-10-19T05:07:15.951Z,14.50
2022-10-19T05:09:43.139Z,13.02
2022-10-19T05:12:10.217Z,14.50
2022-10-19T05:14:39.132Z,13.80
2022-10-19T05:17:09.085Z,11.80
2022-10-19T05:19:36.150Z,13.40
2022-10-19T05:22:03.213Z,14.10
2022-10-19T05:24:32.482Z,12.70
2022-10-19T05:26:59.563Z,12.95
2022-10-19T05:29:26.742Z,11.85
2022-10-19T05:31:53.839Z,12.43
2022-10-19T05:34:20.959Z,13.10
2022-10-19T05:36:48.059Z,12.32
2022-10-19T05:39:16.954Z,12.63
2022-10-19T05:41:47.894Z,11.85
2022-10-19T05:44:16.569Z,11.13
2022-10-19T05:46:44.047Z,10.45
2022-10-19T05:49:11.823Z,9.95
2022-10-19T05:51:38.932Z,10.43
2022-10-19T05:54:06.291Z,10.60
2022-10-19T05:56:33.565Z,10.52
2022-10-19T05:59:02.085Z,10.43
2022-10-19T06:01:30.062Z,9.25
2022-10-19T06:03:58.091Z,8.77
2022-10-19T06:06:26.058Z,10.82
2022-10-19T06:08:53.686Z,9.10
2022-10-19T06:11:26.040Z,11.13
2022-10-19T06:13:55.096Z,11.63
2022-10-19T06:16:23.865Z,9.93
2022-10-19T06:18:50.940Z,9.52
2022-10-19T06:21:19.137Z,10.43
2022-10-19T06:23:46.315Z,9.23
2022-10-19T06:26:14.494Z,10.50
2022-10-19T06:28:42.415Z,10.85
2022-10-19T06:31:09.687Z,10.65
2022-10-19T06:33:37.251Z,10.60
2022-10-19T06:36:11.936Z,9.73
2022-10-19T06:38:39.011Z,9.48
2022-10-19T06:41:06.173Z,10.70
2022-10-19T06:43:33.950Z,10.07
2022-10-19T06:46:04.855Z,10.43
2022-10-19T06:48:32.063Z,9.70
2022-10-19T06:51:00.106Z,10.23
2022-10-19T06:53:29.011Z,8.98
2022-10-19T06:55:59.423Z,8.45
2022-10-19T06:58:27.007Z,10.65
2022-10-19T07:01:00.631Z,10.55
2022-10-19T07:03:28.621Z,10.25
2022-10-19T07:05:55.729Z,10.25
2022-10-19T07:08:22.973Z,9.32
2022-10-19T07:10:50.828Z,9.32
2022-10-19T07:13:17.886Z,10.70
2022-10-19T07:15:44.953Z,10.15
2022-10-19T07:18:12.146Z,9.57
2022-10-19T07:20:39.252Z,8.90
2022-10-19T07:23:07.173Z,8.65
2022-10-19T07:25:35.789Z,9.50
2022-10-19T07:28:02.905Z,7.18
2022-10-19T07:30:29.971Z,7.20
2022-10-19T07:32:57.045Z,7.38
2022-10-19T07:35:24.195Z,6.47
2022-10-19T07:37:51.245Z,7.50
2022-10-19T07:40:18.354Z,7.90
2022-10-19T07:42:45.419Z,7.80
2022-10-19T07:45:12.518Z,7.80
2022-10-19T07:47:39.568Z,7.55
2022-10-19T07:50:06.687Z,8.32
2022-10-19T07:52:36.720Z,7.78
2022-10-19T07:55:04.392Z,9.73
2022-10-19T07:57:31.440Z,8.25
2022-10-19T07:59:58.481Z,8.52
2022-10-19T08:02:30.911Z,7.90
2022-10-19T08:05:10.482Z,9.15
2022-10-19T08:07:37.707Z,9.25
2022-10-19T08:10:05.251Z,7.57
2022-10-19T08:12:32.512Z,7.30
2022-10-19T08:14:59.821Z,8.20
2022-10-19T08:17:26.911Z,7.30
2022-10-19T08:19:54.039Z,6.90
2022-10-19T08:22:21.090Z,7.13
2022-10-19T08:24:49.219Z,6.78
2022-10-19T08:27:16.262Z,7.07
2022-10-19T08:29:43.423Z,6.43
2022-10-19T08:32:10.745Z,6.95
2022-10-19T08:34:38.245Z,6.40
2022-10-19T08:37:14.679Z,6.22
2022-10-19T08:39:52.372Z,6.03
2022-10-19T08:42:21.666Z,6.78
2022-10-19T08:45:04.701Z,5.47
2022-10-19T08:47:37.950Z,5.45
2022-10-19T08:50:15.318Z,5.30
2022-10-19T08:52:42.924Z,4.68
2022-10-19T08:55:18.045Z,4.90
2022-10-19T08:58:06.102Z,4.65
2022-10-19T09:00:42.162Z,4.10
2022-10-19T09:03:37.844Z,4.80
2022-10-19T09:06:28.812Z,4.85
2022-10-19T09:08:56.454Z,4.53
2022-10-19T09:11:25.995Z,4.50
2022-10-19T09:14:05.139Z,4.65
2022-10-19T09:16:34.837Z,5.28
2022-10-19T09:19:02.042Z,5.22
2022-10-19T09:21:44.575Z,4.60
2022-10-19T09:24:26.520Z,5.28
2022-10-19T09:26:54.656Z,5.63
2022-10-19T09:29:21.703Z,5.63
2022-10-19T09:31:50.928Z,4.60
2022-10-19T09:34:25.272Z,3.85
2022-10-19T09:36:57.241Z,4.05
2022-10-19T09:39:28.659Z,3.72
2022-10-19T09:41:58.183Z,3.63
2022-10-19T09:44:26.116Z,3.70
2022-10-19T09:46:53.194Z,4.93
2022-10-19T09:49:38.355Z,4.60
2022-10-19T09:52:05.605Z,3.83
2022-10-19T09:54:35.029Z,3.92
2022-10-19T09:57:03.140Z,3.63
2022-10-19T09:59:31.624Z,4.00
2022-10-19T10:02:04.902Z,3.88
2022-10-19T10:04:32.147Z,3.85
2022-10-19T10:06:59.372Z,4.45
2022-10-19T10:09:28.468Z,3.92
2022-10-19T10:11:57.629Z,3.28
2022-10-19T10:14:29.475Z,4.53
2022-10-19T10:17:07.573Z,4.13
2022-10-19T10:19:38.025Z,4.40
2022-10-19T10:22:05.413Z,3.53
2022-10-19T10:24:33.365Z,3.75
2022-10-19T10:27:01.846Z,4.47
2022-10-19T10:29:33.810Z,3.72
2022-10-19T10:32:00.897Z,4.03
2022-10-19T10:35:01.088Z,3.70
2022-10-19T10:37:36.201Z,3.60
2022-10-19T10:40:05.170Z,3.47
2022-10-19T10:42:37.791Z,3.38
2022-10-19T10:45:05.530Z,2.88
2022-10-19T10:47:32.947Z,2.90
2022-10-19T10:50:02.729Z,3.30
2022-10-19T10:52:31.415Z,2.90
2022-10-19T10:55:03.654Z,3.05
2022-10-19T10:57:42.361Z,2.85
2022-10-19T11:00:14.863Z,2.88
2022-10-19T11:02:47.075Z,2.65
2022-10-19T11:05:18.009Z,2.92
2022-10-19T11:07:47.278Z,4.43
2022-10-19T11:10:14.563Z,3.20
2022-10-19T11:12:44.745Z,2.88
2022-10-19T11:15:15.678Z,2.95
2022-10-19T11:17:47.744Z,2.60
2022-10-19T11:20:16.797Z,3.45
2022-10-19T11:22:47.009Z,2.95
2022-10-19T11:25:19.915Z,2.47
2022-10-19T11:28:05.291Z,2.92
2022-10-19T11:30:35.003Z,2.72
2022-10-19T11:33:14.414Z,2.45
2022-10-19T11:35:53.099Z,3.10
2022-10-19T11:38:27.417Z,4.35
2022-10-19T11:41:17.465Z,3.15
2022-10-19T11:44:14.388Z,3.28
2022-10-19T11:46:44.351Z,4.25
2022-10-19T11:49:11.425Z,2.75
2022-10-19T11:51:47.017Z,2.92
2022-10-19T11:54:23.351Z,3.20
2022-10-19T11:57:05.509Z,3.47
2022-10-19T11:59:37.500Z,3.00
2022-10-19T12:02:04.709Z,2.40
2022-10-19T12:04:44.393Z,2.53
2022-10-19T12:07:29.958Z,2.20
2022-10-19T12:10:08.067Z,2.30
2022-10-19T12:12:41.054Z,2.63
2022-10-19T12:15:20.115Z,2.47
2022-10-19T12:17:50.679Z,2.63
2022-10-19T12:20:26.900Z,2.43
2022-10-19T12:22:54.387Z,2.58
2022-10-19T12:25:21.609Z,2.10
2022-10-19T12:27:50.664Z,2.30
2022-10-19T12:30:19.712Z,1.83
2022-10-19T12:33:05.485Z,2.03
2022-10-19T12:35:55.843Z,1.98
2022-10-19T12:38:27.895Z,1.80
2022-10-19T12:41:05.291Z,2.15
2022-10-19T12:43:36.776Z,5.30
2022-10-19T12:48:30.882Z,2.55
2022-10-19T12:50:59.214Z,3.40
2022-10-19T12:56:19.337Z,1.73
2022-10-19T13:01:36.216Z,2.20
2022-10-19T13:04:21.579Z,2.28
2022-10-19T13:06:50.699Z,1.70
2022-10-19T13:09:33.403Z,2.10
2022-10-19T13:12:19.898Z,1.90
2022-10-19T13:15:01.188Z,1.73
2022-10-19T13:17:34.753Z,2.47
2022-10-19T13:20:14.553Z,1.70
2022-10-19T13:22:42.455Z,2.08
2022-10-19T13:25:29.690Z,2.15
2022-10-19T13:28:12.779Z,1.73
2022-10-19T13:30:41.674Z,2.00
2022-10-19T13:33:33.260Z,2.90
2022-10-19T13:36:00.535Z,2.03
2022-10-19T13:41:15.260Z,1.90
2022-10-19T13:44:01.208Z,2.60
2022-10-19T13:46:31.093Z,2.40
2022-10-19T13:49:16.740Z,2.53
2022-10-19T13:51:46.895Z,1.75
2022-10-19T13:54:23.284Z,1.38
2022-10-19T13:56:50.310Z,1.70
2022-10-19T13:59:23.529Z,1.80
2022-10-19T14:01:53.803Z,1.13
2022-10-19T14:04:23.079Z,1.13
2022-10-19T14:06:55.269Z,1.20
2022-10-19T14:09:41.176Z,1.13
2022-10-19T14:12:11.533Z,1.10
2022-10-19T14:14:43.379Z,1.20
2022-10-19T14:17:28.850Z,1.30
2022-10-19T14:19:57.797Z,1.38
2022-10-19T14:22:36.108Z,1.30
2022-10-19T14:25:15.473Z,1.00
2022-10-19T14:27:42.767Z,1.52
2022-10-19T14:30:28.062Z,1.10
2022-10-19T14:32:59.407Z,1.10
2022-10-19T14:35:31.503Z,1.30
2022-10-19T14:38:00.110Z,1.60
2022-10-19T14:40:29.470Z,1.73
2022-10-19T14:42:57.700Z,1.77
2022-10-19T14:45:26.291Z,1.50
2022-10-19T14:47:53.358Z,1.58
2022-10-19T14:50:22.317Z,2.03
2022-10-19T14:52:50.975Z,1.80
2022-10-19T14:55:18.902Z,1.73
2022-10-19T14:57:47.529Z,1.60
2022-10-19T15:02:56.631Z,2.38
2022-10-19T15:05:25.345Z,2.70
2022-10-19T15:07:52.704Z,2.33
2022-10-19T15:10:21.705Z,2.63
2022-10-19T15:12:50.872Z,2.85
2022-10-19T15:15:24.645Z,2.65
2022-10-19T15:17:52.449Z,3.22
2022-10-19T15:20:25.849Z,2.63
2022-10-19T15:22:53.046Z,2.50
2022-10-19T15:25:25.050Z,3.25
2022-10-19T15:27:53.666Z,2.40
2022-10-19T15:30:32.218Z,2.28
2022-10-19T15:33:02.544Z,2.70
2022-10-19T15:35:34.964Z,2.72
2022-10-19T15:38:15.880Z,3.08
2022-10-19T15:40:44.189Z,3.20
2022-10-19T15:43:30.537Z,2.85
2022-10-19T15:46:00.603Z,2.90
2022-10-19T15:48:29.415Z,3.88
2022-10-19T15:50:57.449Z,2.85
2022-10-19T15:53:25.684Z,3.40
2022-10-19T15:55:52.811Z,3.60
2022-10-19T15:58:21.167Z,3.75
2022-10-19T16:00:48.413Z,3.28
2022-10-19T16:03:16.397Z,5.03
2022-10-19T16:05:43.590Z,4.43
2022-10-19T16:08:12.491Z,4.68
2022-10-19T16:10:39.918Z,4.70
2022-10-19T16:13:07.238Z,4.60
2022-10-19T16:15:34.373Z,4.60
2022-10-19T16:18:01.769Z,5.30
2022-10-19T16:20:30.193Z,5.25
2022-10-19T16:22:57.883Z,7.72
2022-10-19T16:25:25.066Z,6.05
2022-10-19T16:27:52.177Z,4.50
2022-10-19T16:30:19.359Z,5.85
2022-10-19T16:32:48.687Z,4.88
2022-10-19T16:35:16.051Z,5.78
2022-10-19T16:37:43.200Z,5.15
2022-10-19T16:40:10.564Z,5.32
2022-10-19T16:42:37.963Z,6.47
2022-10-19T16:45:05.378Z,5.85
2022-10-19T16:47:32.483Z,6.28
2022-10-19T16:50:01.155Z,7.25
2022-10-19T16:52:29.363Z,8.23
2022-10-19T16:54:57.480Z,8.10
2022-10-19T16:57:24.653Z,7.50
2022-10-19T17:02:21.481Z,7.90
2022-10-19T17:04:48.894Z,9.02
2022-10-19T17:07:16.335Z,8.38
2022-10-19T17:09:43.837Z,8.85
2022-10-19T17:12:11.653Z,9.60
2022-10-19T17:14:39.832Z,8.10
2022-10-19T17:17:07.205Z,8.20
2022-10-19T17:19:34.513Z,6.35
2022-10-19T17:22:02.936Z,5.65
2022-10-19T17:24:30.236Z,5.35
2022-10-19T17:26:57.451Z,5.30
2022-10-19T17:29:24.755Z,5.30
2022-10-19T17:31:51.971Z,4.60
2022-10-19T17:34:19.258Z,4.97
2022-10-19T17:36:46.669Z,4.78
2022-10-19T17:39:18.141Z,3.78
2022-10-19T17:41:46.251Z,4.38
2022-10-19T17:44:13.361Z,3.60
2022-10-19T17:46:40.531Z,3.63
2022-10-19T17:49:08.976Z,4.28
2022-10-19T17:51:36.750Z,3.20
2022-10-19T17:54:05.513Z,3.47
2022-10-19T17:56:32.706Z,3.95
2022-10-19T17:59:00.151Z,3.75
2022-10-19T18:01:27.771Z,4.38
2022-10-19T18:03:55.220Z,3.35
2022-10-19T18:06:23.679Z,3.97
2022-10-19T18:08:52.298Z,3.20
2022-10-19T18:11:20.733Z,3.72
2022-10-19T18:13:48.461Z,3.33
2022-10-19T18:16:17.302Z,4.80
2022-10-19T18:18:51.301Z,3.63
2022-10-19T18:21:20.316Z,4.15
2022-10-19T18:23:47.896Z,4.18
2022-10-19T18:26:16.724Z,5.18
2022-10-19T18:28:44.007Z,3.97
2022-10-19T18:31:12.827Z,4.22
2022-10-19T18:33:40.430Z,3.70
2022-10-19T18:36:08.582Z,4.00
2022-10-19T18:38:35.779Z,4.55
2022-10-19T18:41:05.700Z,5.15
2022-10-19T18:43:32.912Z,4.68
2022-10-19T18:46:00.678Z,4.43
2022-10-19T18:48:28.768Z,5.30
2022-10-19T18:50:56.638Z,4.93
2022-10-19T18:53:24.246Z,4.35
2022-10-19T18:56:08.689Z,4.80
2022-10-19T18:58:35.904Z,4.28
2022-10-19T19:01:26.664Z,5.47
2022-10-19T19:03:55.184Z,4.40
2022-10-19T19:06:24.540Z,4.53
2022-10-19T19:08:51.952Z,4.00
2022-10-19T19:11:19.908Z,4.22
2022-10-19T19:13:51.988Z,4.85
2022-10-19T19:16:19.320Z,4.38
2022-10-19T19:18:46.467Z,4.70
2022-10-19T19:21:15.400Z,3.83
2022-10-19T19:23:42.473Z,4.20
2022-10-19T19:26:10.342Z,4.85
2022-10-19T19:28:40.696Z,4.07
2022-10-19T19:31:09.587Z,4.25
2022-10-19T19:33:36.980Z,5.70
2022-10-19T19:36:07.948Z,4.78
2022-10-19T19:38:35.813Z,4.13
2022-10-19T19:41:06.721Z,5.38
2022-10-19T19:43:34.689Z,4.85
2022-10-19T19:46:06.175Z,6.30
2022-10-19T19:48:36.425Z,6.20
2022-10-19T19:51:03.636Z,7.60
2022-10-19T19:53:30.785Z,7.15
2022-10-19T19:55:57.921Z,6.05
2022-10-19T19:58:25.082Z,6.45
2022-10-19T20:00:52.190Z,8.63
2022-10-19T20:03:19.458Z,6.18
2022-10-19T20:05:46.558Z,4.85
2022-10-19T20:08:13.728Z,6.47
2022-10-19T20:10:41.675Z,6.05
2022-10-19T20:13:08.879Z,5.57
2022-10-19T20:15:39.767Z,5.60
2022-10-19T20:18:07.173Z,5.38
2022-10-19T20:20:34.285Z,5.40
2022-10-19T20:23:01.339Z,5.85
2022-10-19T20:25:28.428Z,5.55
2022-10-19T20:27:55.527Z,6.13
2022-10-19T20:30:22.575Z,57.90
2022-10-19T20:32:53.589Z,38.30
2022-10-19T20:35:20.657Z,20.75
2022-10-19T20:37:50.874Z,15.43
2022-10-19T20:40:18.624Z,13.43
2022-10-19T20:42:46.448Z,12.93
2022-10-19T20:45:13.698Z,8.43
2022-10-19T20:47:40.865Z,7.80
2022-10-19T20:50:08.937Z,9.23
2022-10-19T20:52:36.649Z,6.25
2022-10-19T20:55:04.038Z,5.40
2022-10-19T20:57:31.138Z,4.45
2022-10-19T20:59:58.181Z,4.68
2022-10-19T21:02:25.381Z,4.47
2022-10-19T21:04:52.456Z,4.95
2022-10-19T21:07:19.523Z,4.97
2022-10-19T21:09:46.574Z,5.60
2022-10-19T21:12:14.060Z,5.43
2022-10-19T21:14:41.127Z,4.97
2022-10-19T21:17:10.748Z,5.00
2022-10-19T21:19:37.841Z,5.75
2022-10-19T21:22:06.149Z,5.93
2022-10-19T21:24:35.092Z,5.47
2022-10-19T21:27:03.739Z,5.38
2022-10-19T21:29:31.204Z,5.35
2022-10-19T21:31:58.263Z,7.45
2022-10-19T21:34:26.914Z,6.05
2022-10-19T21:36:54.428Z,7.28
2022-10-19T21:39:21.669Z,5.63
2022-10-19T21:41:49.501Z,5.90
2022-10-19T21:44:17.409Z,6.20
2022-10-19T21:46:44.961Z,5.78
2022-10-19T21:49:12.624Z,6.25
2022-10-19T21:51:53.971Z,8.10
2022-10-19T21:54:22.146Z,8.02
2022-10-19T21:56:49.357Z,5.60
2022-10-19T21:59:16.822Z,4.80
2022-10-19T22:01:44.200Z,5.97
2022-10-19T22:04:16.229Z,5.80
2022-10-19T22:06:43.406Z,6.63
2022-10-19T22:09:12.897Z,5.60
2022-10-19T22:11:40.021Z,8.32
2022-10-19T22:14:07.198Z,7.25
2022-10-19T22:16:36.694Z,7.13
2022-10-19T22:19:05.052Z,6.95
2022-10-19T22:21:33.061Z,6.78
2022-10-19T22:24:01.693Z,6.53
2022-10-19T22:26:32.856Z,6.95
2022-10-19T22:29:00.908Z,7.47
2022-10-19T22:31:29.106Z,7.13
2022-10-19T22:33:56.326Z,8.02
2022-10-19T22:36:23.402Z,8.05
2022-10-19T22:38:50.499Z,7.07
2022-10-19T22:41:17.667Z,8.20
2022-10-19T22:43:44.750Z,7.25
2022-10-19T22:46:11.910Z,6.72
2022-10-19T22:48:39.042Z,7.50
2022-10-19T22:51:06.149Z,6.78
2022-10-19T22:53:33.208Z,7.72
2022-10-19T22:56:00.445Z,7.10
2022-10-19T22:58:27.500Z,8.70
2022-10-19T23:01:05.562Z,8.13
2022-10-19T23:03:33.039Z,6.68
2022-10-19T23:06:00.567Z,7.38
2022-10-19T23:08:28.577Z,7.10
2022-10-19T23:10:55.718Z,7.53
2022-10-19T23:13:22.861Z,6.80
2022-10-19T23:15:50.782Z,8.18
2022-10-19T23:18:17.968Z,7.70
2022-10-19T23:20:53.073Z,7.68
2022-10-19T23:23:20.123Z,8.80
2022-10-19T23:25:57.235Z,7.70
2022-10-19T23:28:24.309Z,7.30
2022-10-19T23:30:51.524Z,7.43
2022-10-19T23:33:18.648Z,7.20
2022-10-19T23:35:45.844Z,6.60
2022-10-19T23:38:12.908Z,7.50
2022-10-19T23:40:40.345Z,7.30
2022-10-19T23:43:07.440Z,8.63
2022-10-19T23:45:34.510Z,6.88
2022-10-19T23:48:01.562Z,6.82
2022-10-19T23:50:28.615Z,8.35
2022-10-19T23:52:55.651Z,7.38
2022-10-19T23:55:22.709Z,8.32
2022-10-19T23:57:49.813Z,7.43
